Time;durP1;ratioP1;P1;durP2;ratioP2;P2;SDS_P1;SDS_P2;PMS_P1;PMS_P2;Temp;Humidity;BMP_temperature;BMP_pressure;BME280_temperature;BME280_humidity;BME280_pressure;Samples;Min_cycle;Max_cycle;Signal;HPM_P1;HPM_P2
2023/08/30 00:01:15;;;;;;;1.70;0.60;;;;;;;;;;5077146;28;20437;-87
2023/08/30 00:03:42;;;;;;;1.60;0.77;;;;;;;;;;5077272;28;20468;-86
2023/08/30 00:06:09;;;;;;;3.43;0.90;;;;;;;;;;5084067;28;20440;-86
2023/08/30 00:08:36;;;;;;;1.73;0.80;;;;;;;;;;5098219;28;20500;-87
2023/08/30 00:11:04;;;;;;;1.80;0.93;;;;;;;;;;5095027;28;20478;-85
2023/08/30 00:13:32;;;;;;;1.70;0.80;;;;;;;;;;5072952;28;20478;-85
2023/08/30 00:15:59;;;;;;;2.97;1.17;;;;;;;;;;5067163;28;20456;-86
2023/08/30 00:18:28;;;;;;;1.83;0.90;;;;;;;;;;5073331;28;20491;-86
2023/08/30 00:20:54;;;;;;;1.40;0.60;;;;;;;;;;5087495;28;20447;-86
2023/08/30 00:23:21;;;;;;;2.43;1.03;;;;;;;;;;5096644;28;20432;-85
2023/08/30 00:25:48;;;;;;;2.03;0.90;;;;;;;;;;5083075;28;20953;-87
2023/08/30 00:28:16;;;;;;;2.67;1.03;;;;;;;;;;5075690;28;20529;-86
2023/08/30 00:30:43;;;;;;;1.90;1.00;;;;;;;;;;5076455;28;20445;-86
2023/08/30 00:33:10;;;;;;;1.67;0.77;;;;;;;;;;5076608;28;20499;-87
2023/08/30 00:35:39;;;;;;;2.00;0.80;;;;;;;;;;5070669;28;20464;-87
2023/08/30 00:38:06;;;;;;;1.50;0.60;;;;;;;;;;5095893;28;20432;-86
2023/08/30 00:40:39;;;;;;;1.67;0.70;;;;;;;;;;5097879;28;20455;-86
2023/08/30 00:43:06;;;;;;;1.60;0.70;;;;;;;;;;5096952;28;20503;-87
2023/08/30 00:45:34;;;;;;;2.20;0.83;;;;;;;;;;5085266;28;20472;-87
2023/08/30 00:48:01;;;;;;;3.30;0.80;;;;;;;;;;5076822;28;20484;-88
2023/08/30 00:50:28;;;;;;;1.70;0.80;;;;;;;;;;5083988;28;20922;-86
2023/08/30 00:52:57;;;;;;;3.70;1.10;;;;;;;;;;5097033;28;20508;-86
2023/08/30 00:55:24;;;;;;;1.47;0.70;;;;;;;;;;5082367;28;20876;-85
2023/08/30 00:57:52;;;;;;;2.27;0.70;;;;;;;;;;5074939;28;20483;-86
2023/08/30 01:00:19;;;;;;;1.57;0.53;;;;;;;;;;5076026;28;20472;-87
2023/08/30 01:02:46;;;;;;;2.70;0.83;;;;;;;;;;5076909;28;20452;-86
2023/08/30 01:05:14;;;;;;;2.80;0.80;;;;;;;;;;5077958;28;20891;-85
2023/08/30 01:07:41;;;;;;;1.97;0.70;;;;;;;;;;5084340;28;20558;-86
2023/08/30 01:10:11;;;;;;;2.27;0.77;;;;;;;;;;5097277;28;20432;-86
2023/08/30 01:12:41;;;;;;;3.40;0.73;;;;;;;;;;5076915;28;20497;-86
2023/08/30 01:15:13;;;;;;;1.90;0.80;;;;;;;;;;5077194;28;21040;-86
2023/08/30 01:17:41;;;;;;;2.37;0.90;;;;;;;;;;5077472;28;20483;-86
2023/08/30 01:20:13;;;;;;;1.73;0.70;;;;;;;;;;5076121;28;20491;-86
2023/08/30 01:22:42;;;;;;;1.70;0.70;;;;;;;;;;5097777;28;20452;-86
2023/08/30 01:25:17;;;;;;;1.70;0.80;;;;;;;;;;5093930;28;20472;-86
2023/08/30 01:27:47;;;;;;;1.57;0.53;;;;;;;;;;5076613;28;20499;-86
2023/08/30 01:30:15;;;;;;;2.00;0.97;;;;;;;;;;5077165;28;20440;-86
2023/08/30 01:32:42;;;;;;;3.43;0.80;;;;;;;;;;5077367;28;20449;-86
2023/08/30 01:35:10;;;;;;;1.70;0.70;;;;;;;;;;5077791;28;20976;-86
2023/08/30 01:37:37;;;;;;;1.97;0.70;;;;;;;;;;5076789;28;20475;-85
2023/08/30 01:40:05;;;;;;;3.97;0.63;;;;;;;;;;5093393;28;20431;-86
2023/08/30 01:42:33;;;;;;;1.83;0.60;;;;;;;;;;5097148;28;20428;-86
2023/08/30 01:45:02;;;;;;;2.40;0.70;;;;;;;;;;5094791;28;20483;-86
2023/08/30 01:47:30;;;;;;;1.57;0.50;;;;;;;;;;5079674;28;20483;-86
2023/08/30 01:49:58;;;;;;;2.10;0.70;;;;;;;;;;5072219;28;20448;-86
2023/08/30 01:52:26;;;;;;;2.83;0.90;;;;;;;;;;5092945;28;20471;-86
2023/08/30 01:54:53;;;;;;;2.67;0.90;;;;;;;;;;5086181;28;20529;-86
2023/08/30 01:57:21;;;;;;;1.60;0.70;;;;;;;;;;5073011;28;20996;-86
2023/08/30 01:59:48;;;;;;;1.70;0.60;;;;;;;;;;5073337;28;20475;-87
2023/08/30 02:02:17;;;;;;;2.10;0.77;;;;;;;;;;5072882;28;20436;-87
2023/08/30 02:04:44;;;;;;;1.60;0.70;;;;;;;;;;5073363;28;20457;-86
2023/08/30 02:07:15;;;;;;;2.77;0.80;;;;;;;;;;5072759;28;20479;-86
2023/08/30 02:09:46;;;;;;;2.37;0.90;;;;;;;;;;5073194;28;20472;-87
2023/08/30 02:12:16;;;;;;;1.73;0.80;;;;;;;;;;5073825;28;21004;-87
2023/08/30 02:14:45;;;;;;;2.37;1.00;;;;;;;;;;5074404;28;20949;-87
2023/08/30 02:17:15;;;;;;;2.13;1.03;;;;;;;;;;5074433;28;20441;-87
2023/08/30 02:19:44;;;;;;;1.40;0.60;;;;;;;;;;5075057;28;20452;-86
2023/08/30 02:22:11;;;;;;;3.80;1.20;;;;;;;;;;5075715;28;20444;-87
2023/08/30 02:24:39;;;;;;;1.90;0.70;;;;;;;;;;5093953;28;20952;-86
2023/08/30 02:27:06;;;;;;;1.60;0.70;;;;;;;;;;5078395;28;20894;-86
2023/08/30 02:29:34;;;;;;;1.50;0.57;;;;;;;;;;5073528;28;20495;-87
2023/08/30 02:32:01;;;;;;;1.70;0.67;;;;;;;;;;5073979;28;20444;-86
2023/08/30 02:34:29;;;;;;;1.43;0.50;;;;;;;;;;5073583;28;20869;-87
2023/08/30 02:36:57;;;;;;;1.50;0.57;;;;;;;;;;5076720;28;20556;-85
2023/08/30 02:39:25;;;;;;;1.40;0.63;;;;;;;;;;5078080;28;20490;-85
2023/08/30 02:41:52;;;;;;;1.53;0.67;;;;;;;;;;5095965;28;20444;-86
2023/08/30 02:44:19;;;;;;;1.70;0.63;;;;;;;;;;5089389;28;20496;-86
2023/08/30 02:46:46;;;;;;;1.43;0.50;;;;;;;;;;5075129;28;20488;-86
2023/08/30 02:49:13;;;;;;;2.03;0.70;;;;;;;;;;5074888;28;20879;-87
2023/08/30 02:51:41;;;;;;;1.60;0.70;;;;;;;;;;5079524;28;20487;-86
2023/08/30 02:54:12;;;;;;;2.33;0.80;;;;;;;;;;5079814;28;20472;-86
2023/08/30 02:56:39;;;;;;;2.07;0.90;;;;;;;;;;5080544;28;20445;-85
2023/08/30 02:59:06;;;;;;;1.80;0.60;;;;;;;;;;5080120;28;20506;-87
2023/08/30 03:01:34;;;;;;;2.03;0.50;;;;;;;;;;5077809;28;20452;-87
2023/08/30 03:04:01;;;;;;;5.10;0.73;;;;;;;;;;5075706;28;20594;-86
2023/08/30 03:06:28;;;;;;;1.67;0.67;;;;;;;;;;5077998;28;20486;-86
2023/08/30 03:08:55;;;;;;;1.83;0.80;;;;;;;;;;5076858;28;20468;-87
2023/08/30 03:11:24;;;;;;;1.60;0.70;;;;;;;;;;5085090;28;20448;-87
2023/08/30 03:13:51;;;;;;;1.60;0.70;;;;;;;;;;5095266;28;21166;-86
2023/08/30 03:16:19;;;;;;;2.10;0.50;;;;;;;;;;5076878;28;20491;-86
2023/08/30 03:18:46;;;;;;;1.77;1.00;;;;;;;;;;5074632;28;20441;-86
2023/08/30 03:21:13;;;;;;;1.80;0.50;;;;;;;;;;5074531;28;20944;-87
2023/08/30 03:23:41;;;;;;;2.97;1.10;;;;;;;;;;5074642;28;20495;-86
2023/08/30 03:26:11;;;;;;;2.10;0.97;;;;;;;;;;5075602;28;20468;-87
2023/08/30 03:28:40;;;;;;;2.33;0.60;;;;;;;;;;5075983;28;20500;-86
2023/08/30 03:31:14;;;;;;;1.80;0.70;;;;;;;;;;5075878;28;20880;-86
2023/08/30 03:33:42;;;;;;;1.50;0.67;;;;;;;;;;5076424;28;20585;-87
2023/08/30 03:36:10;;;;;;;1.80;0.93;;;;;;;;;;5057256;28;20452;-86
2023/08/30 03:38:37;;;;;;;3.63;0.70;;;;;;;;;;5055644;28;20536;-87
2023/08/30 03:41:04;;;;;;;3.30;0.90;;;;;;;;;;5074232;28;20484;-87
2023/08/30 03:43:32;;;;;;;2.70;0.77;;;;;;;;;;5075258;28;20531;-88
2023/08/30 03:46:02;;;;;;;1.70;0.60;;;;;;;;;;5078330;28;20448;-86
2023/08/30 03:48:30;;;;;;;1.80;0.80;;;;;;;;;;5079461;28;20468;-86
2023/08/30 03:50:58;;;;;;;1.93;0.73;;;;;;;;;;5079046;28;20449;-87
2023/08/30 03:53:25;;;;;;;1.47;0.80;;;;;;;;;;5079148;28;20444;-85
2023/08/30 03:55:52;;;;;;;2.23;0.70;;;;;;;;;;5064673;28;20492;-87
2023/08/30 03:58:20;;;;;;;3.77;0.80;;;;;;;;;;5057172;28;20844;-87
2023/08/30 04:00:48;;;;;;;2.37;0.70;;;;;;;;;;5065730;28;20497;-86
2023/08/30 04:03:17;;;;;;;1.70;0.90;;;;;;;;;;5076163;28;21152;-88
2023/08/30 04:05:44;;;;;;;1.70;0.80;;;;;;;;;;5076256;28;20437;-87
2023/08/30 04:08:12;;;;;;;1.47;0.60;;;;;;;;;;5076635;28;20500;-86
2023/08/30 04:10:39;;;;;;;1.60;0.70;;;;;;;;;;5076357;28;20873;-87
2023/08/30 04:13:07;;;;;;;2.60;1.10;;;;;;;;;;5076245;28;20436;-87
2023/08/30 04:15:35;;;;;;;2.30;1.37;;;;;;;;;;5075708;28;20465;-86
2023/08/30 04:18:02;;;;;;;2.23;1.10;;;;;;;;;;5077175;28;20445;-88
2023/08/30 04:20:32;;;;;;;2.30;1.60;;;;;;;;;;5076062;28;20960;-87
2023/08/30 04:23:01;;;;;;;2.87;1.20;;;;;;;;;;5076397;28;20862;-87
2023/08/30 04:25:28;;;;;;;1.80;1.40;;;;;;;;;;5075961;28;20475;-87
2023/08/30 04:27:56;;;;;;;2.10;1.47;;;;;;;;;;5076534;28;20551;-87
2023/08/30 04:30:23;;;;;;;2.00;1.13;;;;;;;;;;5075960;28;20481;-86
2023/08/30 04:32:50;;;;;;;2.20;1.40;;;;;;;;;;5075910;28;20448;-85
2023/08/30 04:35:18;;;;;;;2.80;1.20;;;;;;;;;;5075549;28;20465;-87
2023/08/30 04:37:47;;;;;;;2.57;1.10;;;;;;;;;;5076074;28;20519;-87
2023/08/30 04:40:15;;;;;;;2.27;1.20;;;;;;;;;;5075204;28;20444;-87
2023/08/30 04:42:43;;;;;;;2.30;1.80;;;;;;;;;;5089544;28;20467;-87
2023/08/30 04:45:10;;;;;;;2.07;1.10;;;;;;;;;;5086757;28;21052;-86
2023/08/30 04:47:38;;;;;;;2.07;1.37;;;;;;;;;;5076872;28;20451;-87
2023/08/30 04:50:05;;;;;;;3.80;1.10;;;;;;;;;;5074879;28;20510;-87
2023/08/30 04:52:33;;;;;;;1.60;0.87;;;;;;;;;;5070709;28;20522;-85
2023/08/30 04:55:02;;;;;;;1.70;0.80;;;;;;;;;;5073278;28;20531;-86
2023/08/30 04:57:29;;;;;;;1.77;1.10;;;;;;;;;;5072161;28;20956;-86
2023/08/30 04:59:56;;;;;;;1.90;0.90;;;;;;;;;;5073737;28;20472;-86
2023/08/30 05:02:24;;;;;;;1.70;1.00;;;;;;;;;;5071843;28;20484;-87
2023/08/30 05:04:51;;;;;;;2.00;1.10;;;;;;;;;;5072632;28;20488;-85
2023/08/30 05:07:18;;;;;;;2.87;1.20;;;;;;;;;;5075172;28;20888;-85
2023/08/30 05:09:45;;;;;;;3.17;1.30;;;;;;;;;;5072352;28;20988;-88
2023/08/30 05:12:14;;;;;;;2.23;1.23;;;;;;;;;;5078605;28;20468;-88
2023/08/30 05:14:42;;;;;;;2.30;1.30;;;;;;;;;;5072990;28;20513;-89
2023/08/30 05:17:09;;;;;;;2.40;1.83;;;;;;;;;;5090340;28;20493;-89
2023/08/30 05:19:36;;;;;;;2.00;1.43;;;;;;;;;;5092994;28;20493;-89
2023/08/30 05:22:03;;;;;;;4.57;1.40;;;;;;;;;;5091487;28;20484;-89
2023/08/30 05:24:31;;;;;;;2.07;1.20;;;;;;;;;;5071720;28;20902;-89
2023/08/30 05:26:58;;;;;;;2.30;1.20;;;;;;;;;;5071734;28;20545;-88
2023/08/30 05:29:27;;;;;;;2.20;1.50;;;;;;;;;;5071243;28;21063;-88
2023/08/30 05:31:54;;;;;;;1.97;1.30;;;;;;;;;;5071314;28;20788;-87
2023/08/30 05:34:21;;;;;;;1.90;1.07;;;;;;;;;;5071809;28;20514;-88
2023/08/30 05:36:48;;;;;;;1.80;1.27;;;;;;;;;;5073798;28;20436;-87
2023/08/30 05:39:16;;;;;;;6.63;1.00;;;;;;;;;;5076206;28;20471;-86
2023/08/30 05:41:43;;;;;;;3.00;1.23;;;;;;;;;;5074678;28;20441;-85
2023/08/30 05:44:10;;;;;;;1.80;0.77;;;;;;;;;;5076109;28;20488;-87
2023/08/30 05:46:39;;;;;;;1.70;0.70;;;;;;;;;;5074469;28;20479;-88
2023/08/30 05:49:06;;;;;;;3.30;0.80;;;;;;;;;;5067057;28;20851;-87
2023/08/30 05:51:33;;;;;;;1.63;0.77;;;;;;;;;;5074518;28;20793;-87
2023/08/30 05:54:01;;;;;;;2.03;0.83;;;;;;;;;;5073070;28;20938;-88
2023/08/30 05:56:28;;;;;;;1.80;0.93;;;;;;;;;;5074349;28;20449;-88
2023/08/30 05:58:54;;;;;;;2.43;1.20;;;;;;;;;;5074290;28;20436;-87
2023/08/30 06:01:21;;;;;;;2.77;1.03;;;;;;;;;;5073917;28;20444;-87
2023/08/30 06:03:50;;;;;;;1.70;0.93;;;;;;;;;;5073195;28;20464;-88
2023/08/30 06:06:18;;;;;;;2.10;1.20;;;;;;;;;;5073385;28;20468;-87
2023/08/30 06:08:45;;;;;;;2.43;0.80;;;;;;;;;;5074204;28;20912;-87
2023/08/30 06:11:12;;;;;;;1.57;0.67;;;;;;;;;;5073292;28;20973;-87
2023/08/30 06:13:39;;;;;;;2.50;0.80;;;;;;;;;;5063774;28;20517;-87
2023/08/30 06:16:07;;;;;;;2.83;0.80;;;;;;;;;;5072733;28;20432;-87
2023/08/30 06:18:35;;;;;;;2.30;1.20;;;;;;;;;;5072563;28;20452;-87
2023/08/30 06:21:04;;;;;;;1.97;1.23;;;;;;;;;;5073201;28;20461;-86
2023/08/30 06:23:31;;;;;;;2.10;0.97;;;;;;;;;;5057290;28;20531;-87
2023/08/30 06:25:59;;;;;;;1.60;0.80;;;;;;;;;;5071664;28;20860;-87
2023/08/30 06:28:26;;;;;;;1.53;0.67;;;;;;;;;;5072058;28;20459;-87
2023/08/30 06:30:54;;;;;;;1.90;0.80;;;;;;;;;;5072416;28;20440;-87
2023/08/30 06:33:21;;;;;;;1.70;0.90;;;;;;;;;;5073105;28;20494;-87
2023/08/30 06:35:50;;;;;;;2.00;0.97;;;;;;;;;;5073957;28;20449;-86
2023/08/30 06:38:19;;;;;;;1.50;0.80;;;;;;;;;;5074138;28;20479;-87
2023/08/30 06:40:46;;;;;;;1.87;0.80;;;;;;;;;;5073875;28;20479;-88
2023/08/30 06:43:13;;;;;;;1.90;0.60;;;;;;;;;;5073960;28;20472;-87
2023/08/30 06:45:41;;;;;;;2.30;0.73;;;;;;;;;;5073975;28;20496;-88
2023/08/30 06:48:08;;;;;;;1.50;0.70;;;;;;;;;;5074192;28;20432;-87
2023/08/30 06:50:35;;;;;;;2.23;1.13;;;;;;;;;;5073592;28;20472;-87
2023/08/30 06:53:03;;;;;;;2.60;0.97;;;;;;;;;;5073454;28;20476;-88
2023/08/30 06:55:33;;;;;;;2.00;0.90;;;;;;;;;;5073626;28;20456;-87
2023/08/30 06:58:00;;;;;;;1.80;1.10;;;;;;;;;;5084009;28;21013;-88
2023/08/30 07:00:28;;;;;;;1.70;1.10;;;;;;;;;;5087553;28;20476;-87
2023/08/30 07:02:56;;;;;;;2.00;1.10;;;;;;;;;;5074262;28;20528;-87
2023/08/30 07:05:23;;;;;;;1.70;0.80;;;;;;;;;;5074915;28;20471;-88
2023/08/30 07:07:51;;;;;;;2.57;0.80;;;;;;;;;;5074447;28;20433;-88
2023/08/30 07:10:18;;;;;;;2.00;0.87;;;;;;;;;;5078547;28;20471;-87
2023/08/30 07:12:48;;;;;;;1.80;0.70;;;;;;;;;;5095396;28;20470;-87
2023/08/30 07:15:17;;;;;;;2.13;0.90;;;;;;;;;;5089794;28;20496;-87
2023/08/30 07:17:44;;;;;;;2.47;0.83;;;;;;;;;;5074541;28;20458;-86
2023/08/30 07:20:12;;;;;;;2.70;1.13;;;;;;;;;;5075169;28;20472;-86
2023/08/30 07:22:39;;;;;;;2.53;0.90;;;;;;;;;;5075126;28;20494;-87
2023/08/30 07:25:08;;;;;;;1.57;0.77;;;;;;;;;;5074630;28;20813;-88
2023/08/30 07:27:35;;;;;;;2.40;0.77;;;;;;;;;;5086268;28;20436;-87
2023/08/30 07:30:04;;;;;;;1.47;0.60;;;;;;;;;;5095466;28;20480;-87
2023/08/30 07:32:32;;;;;;;1.90;0.90;;;;;;;;;;5096814;28;20496;-88
2023/08/30 07:34:59;;;;;;;1.97;0.80;;;;;;;;;;5096436;28;20491;-87
2023/08/30 07:37:27;;;;;;;2.80;0.70;;;;;;;;;;5098545;28;20470;-87
2023/08/30 07:39:54;;;;;;;2.43;0.90;;;;;;;;;;5085745;28;20444;-87
2023/08/30 07:42:21;;;;;;;2.10;0.87;;;;;;;;;;5079259;28;20437;-87
2023/08/30 07:44:49;;;;;;;1.67;0.70;;;;;;;;;;5079753;28;20492;-87
2023/08/30 07:47:17;;;;;;;2.77;0.73;;;;;;;;;;5077786;28;20425;-87
2023/08/30 07:49:45;;;;;;;2.93;0.60;;;;;;;;;;5078705;28;20472;-87
2023/08/30 07:52:12;;;;;;;1.50;0.77;;;;;;;;;;5078916;28;20488;-87
2023/08/30 07:54:41;;;;;;;2.60;0.90;;;;;;;;;;5075152;28;20829;-87
2023/08/30 07:57:08;;;;;;;2.60;0.60;;;;;;;;;;5079165;28;20432;-87
2023/08/30 07:59:35;;;;;;;1.50;0.60;;;;;;;;;;5075996;28;20502;-87
2023/08/30 08:02:03;;;;;;;1.53;0.60;;;;;;;;;;5074606;28;20441;-87
2023/08/30 08:04:32;;;;;;;1.40;0.60;;;;;;;;;;5075243;28;20518;-87
2023/08/30 08:06:59;;;;;;;1.60;0.60;;;;;;;;;;5075294;28;20440;-87
2023/08/30 08:09:26;;;;;;;2.53;1.00;;;;;;;;;;5076565;28;20472;-87
2023/08/30 08:11:53;;;;;;;2.53;0.80;;;;;;;;;;5058797;28;20453;-87
2023/08/30 08:14:21;;;;;;;2.43;0.93;;;;;;;;;;5073261;28;20488;-87
2023/08/30 08:16:48;;;;;;;1.80;0.70;;;;;;;;;;5077442;28;20456;-87
2023/08/30 08:19:15;;;;;;;1.57;0.83;;;;;;;;;;5079000;28;20482;-87
2023/08/30 08:21:44;;;;;;;1.70;0.83;;;;;;;;;;5077700;28;20929;-87
2023/08/30 08:24:11;;;;;;;1.97;0.70;;;;;;;;;;5087257;28;21033;-88
2023/08/30 08:26:38;;;;;;;1.63;0.80;;;;;;;;;;5097058;28;20527;-87
2023/08/30 08:29:06;;;;;;;2.50;1.20;;;;;;;;;;5078127;28;20497;-87
2023/08/30 08:31:33;;;;;;;1.70;0.80;;;;;;;;;;5074378;28;20444;-88
2023/08/30 08:34:07;;;;;;;1.60;0.70;;;;;;;;;;5068385;28;20892;-87
2023/08/30 08:36:34;;;;;;;1.60;0.70;;;;;;;;;;5072766;28;20482;-87
2023/08/30 08:39:04;;;;;;;1.80;0.90;;;;;;;;;;5077093;28;20464;-88
2023/08/30 08:41:34;;;;;;;1.80;1.10;;;;;;;;;;5078011;28;20460;-86
2023/08/30 08:44:02;;;;;;;2.00;1.10;;;;;;;;;;5072623;28;20876;-88
2023/08/30 08:46:31;;;;;;;1.70;0.70;;;;;;;;;;5067897;28;20459;-88
2023/08/30 08:48:59;;;;;;;1.87;0.93;;;;;;;;;;5067808;28;20452;-87
2023/08/30 08:51:27;;;;;;;6.10;1.20;;;;;;;;;;5077272;28;20564;-87
2023/08/30 08:53:54;;;;;;;1.70;1.00;;;;;;;;;;5096336;28;20872;-87
2023/08/30 08:56:24;;;;;;;2.37;1.07;;;;;;;;;;5098356;28;20444;-88
2023/08/30 08:58:51;;;;;;;2.30;1.30;;;;;;;;;;5090314;28;20975;-87
2023/08/30 09:01:18;;;;;;;1.90;0.90;;;;;;;;;;5077033;28;20440;-88
2023/08/30 09:03:46;;;;;;;2.87;1.00;;;;;;;;;;5076395;28;20475;-87
2023/08/30 09:06:13;;;;;;;1.70;1.10;;;;;;;;;;5077883;28;20452;-87
2023/08/30 09:08:40;;;;;;;2.03;1.07;;;;;;;;;;5075792;28;20482;-88
2023/08/30 09:11:08;;;;;;;2.53;1.30;;;;;;;;;;5077027;28;20500;-86
2023/08/30 09:13:36;;;;;;;1.90;1.10;;;;;;;;;;5076142;28;20511;-88
2023/08/30 09:16:04;;;;;;;1.90;1.10;;;;;;;;;;5075389;28;20480;-87
2023/08/30 09:18:31;;;;;;;2.10;1.10;;;;;;;;;;5075814;28;20453;-88
2023/08/30 09:21:06;;;;;;;1.80;1.23;;;;;;;;;;5076261;28;20441;-87
2023/08/30 09:23:34;;;;;;;1.77;1.03;;;;;;;;;;5065048;28;20535;-87
2023/08/30 09:26:02;;;;;;;1.83;1.17;;;;;;;;;;5075774;28;20480;-86
2023/08/30 09:28:29;;;;;;;2.87;1.33;;;;;;;;;;5077072;28;20440;-87
2023/08/30 09:30:59;;;;;;;4.60;1.13;;;;;;;;;;5089226;28;20487;-85
2023/08/30 09:33:31;;;;;;;1.87;1.00;;;;;;;;;;5078098;28;21047;-86
2023/08/30 09:35:59;;;;;;;1.80;1.10;;;;;;;;;;5072828;28;20532;-86
2023/08/30 09:38:26;;;;;;;2.37;1.20;;;;;;;;;;5073430;28;20445;-86
2023/08/30 09:40:54;;;;;;;1.90;1.17;;;;;;;;;;5073604;28;20441;-86
2023/08/30 09:43:23;;;;;;;1.70;1.00;;;;;;;;;;5074782;28;20448;-87
2023/08/30 09:45:51;;;;;;;1.80;0.90;;;;;;;;;;5074078;28;20487;-85
2023/08/30 09:48:22;;;;;;;2.20;1.20;;;;;;;;;;5074763;28;20482;-87
2023/08/30 09:50:52;;;;;;;3.10;1.30;;;;;;;;;;5075226;28;20531;-86
2023/08/30 09:53:21;;;;;;;1.90;1.07;;;;;;;;;;5075327;28;20526;-87
2023/08/30 09:55:50;;;;;;;2.10;1.50;;;;;;;;;;5074734;28;20441;-88
2023/08/30 09:58:17;;;;;;;2.00;1.37;;;;;;;;;;5075241;28;20437;-87
2023/08/30 10:00:45;;;;;;;1.90;1.20;;;;;;;;;;5075847;28;20440;-87
2023/08/30 10:03:13;;;;;;;1.80;1.10;;;;;;;;;;5075893;28;20849;-87
2023/08/30 10:05:43;;;;;;;2.03;1.40;;;;;;;;;;5075830;28;20499;-87
2023/08/30 10:08:10;;;;;;;1.90;1.30;;;;;;;;;;5077774;28;20436;-88
2023/08/30 10:10:38;;;;;;;1.80;0.90;;;;;;;;;;5076523;28;20523;-87
2023/08/30 10:13:06;;;;;;;2.57;1.47;;;;;;;;;;5075673;28;20429;-86
2023/08/30 10:15:35;;;;;;;3.67;3.37;;;;;;;;;;5075475;28;20506;-87
2023/08/30 10:18:03;;;;;;;2.80;1.57;;;;;;;;;;5076681;28;20436;-86
2023/08/30 10:20:30;;;;;;;2.80;1.30;;;;;;;;;;5074592;28;21016;-87
2023/08/30 10:22:59;;;;;;;2.00;1.50;;;;;;;;;;5075536;28;20546;-85
2023/08/30 10:25:28;;;;;;;1.97;1.00;;;;;;;;;;5073140;28;20464;-86
2023/08/30 10:27:57;;;;;;;1.97;0.97;;;;;;;;;;5073401;28;20533;-86
2023/08/30 10:30:24;;;;;;;2.03;1.10;;;;;;;;;;5073013;28;20526;-87
2023/08/30 10:32:51;;;;;;;1.90;1.10;;;;;;;;;;5073653;28;20497;-86
2023/08/30 10:35:19;;;;;;;2.03;1.13;;;;;;;;;;5072888;28;20464;-85
2023/08/30 10:37:55;;;;;;;1.70;0.80;;;;;;;;;;5074179;28;20517;-87
2023/08/30 10:40:24;;;;;;;2.43;1.40;;;;;;;;;;5075045;28;20499;-87
2023/08/30 10:43:01;;;;;;;2.00;1.20;;;;;;;;;;5073853;28;20502;-85
2023/08/30 10:45:29;;;;;;;2.17;1.33;;;;;;;;;;5073411;28;20472;-86
2023/08/30 10:47:57;;;;;;;2.77;1.60;;;;;;;;;;5073255;28;20449;-86
2023/08/30 10:50:30;;;;;;;1.80;1.07;;;;;;;;;;5080220;28;20498;-86
2023/08/30 10:52:57;;;;;;;2.37;1.03;;;;;;;;;;5091814;28;20443;-86
2023/08/30 10:55:26;;;;;;;2.13;1.10;;;;;;;;;;5071348;28;20464;-86
2023/08/30 10:58:01;;;;;;;1.87;1.00;;;;;;;;;;5071966;28;20440;-86
2023/08/30 11:00:29;;;;;;;2.37;0.83;;;;;;;;;;5071373;28;20865;-85
2023/08/30 11:02:57;;;;;;;2.00;1.00;;;;;;;;;;5094700;28;20526;-86
2023/08/30 11:05:24;;;;;;;1.60;0.70;;;;;;;;;;5097568;28;20461;-86
2023/08/30 11:07:52;;;;;;;1.83;0.90;;;;;;;;;;5100193;28;20443;-87
2023/08/30 11:10:19;;;;;;;1.80;0.90;;;;;;;;;;5093326;28;20513;-85
2023/08/30 11:12:49;;;;;;;1.90;1.20;;;;;;;;;;5096765;28;20485;-85
2023/08/30 11:15:17;;;;;;;2.00;1.20;;;;;;;;;;5097649;28;20463;-86
2023/08/30 11:17:44;;;;;;;1.60;0.90;;;;;;;;;;5096965;28;20447;-85
2023/08/30 11:20:13;;;;;;;1.80;1.30;;;;;;;;;;5097647;28;20486;-85
2023/08/30 11:22:41;;;;;;;1.60;0.73;;;;;;;;;;5082391;28;20871;-85
2023/08/30 11:25:10;;;;;;;1.57;0.73;;;;;;;;;;5079132;28;20970;-87
2023/08/30 11:27:37;;;;;;;3.57;0.90;;;;;;;;;;5079163;28;20472;-85
2023/08/30 11:30:06;;;;;;;3.30;0.90;;;;;;;;;;5077326;28;20504;-85
2023/08/30 11:32:37;;;;;;;1.70;0.87;;;;;;;;;;5077434;28;20806;-85
2023/08/30 11:35:04;;;;;;;1.93;1.13;;;;;;;;;;5057216;28;20550;-85
2023/08/30 11:37:32;;;;;;;2.37;0.70;;;;;;;;;;5065874;28;20432;-85
2023/08/30 11:40:00;;;;;;;1.90;0.90;;;;;;;;;;5078478;28;20470;-86
2023/08/30 11:42:27;;;;;;;1.80;0.90;;;;;;;;;;5076942;28;20436;-85
2023/08/30 11:44:55;;;;;;;2.03;0.83;;;;;;;;;;5076848;28;20468;-85
2023/08/30 11:47:24;;;;;;;1.57;0.80;;;;;;;;;;5076954;28;20475;-86
2023/08/30 11:49:52;;;;;;;1.70;1.10;;;;;;;;;;5076807;28;20497;-85
2023/08/30 11:52:19;;;;;;;1.77;0.93;;;;;;;;;;5076974;28;20549;-85
2023/08/30 11:54:47;;;;;;;1.50;0.73;;;;;;;;;;5076013;28;21004;-85
2023/08/30 11:57:15;;;;;;;2.10;1.13;;;;;;;;;;5076289;28;20458;-85
2023/08/30 11:59:42;;;;;;;1.60;0.70;;;;;;;;;;5076317;28;20532;-85
2023/08/30 12:02:09;;;;;;;1.70;0.90;;;;;;;;;;5076248;28;20445;-85
2023/08/30 12:04:43;;;;;;;1.50;0.50;;;;;;;;;;5075432;28;20495;-85
2023/08/30 12:07:10;;;;;;;1.77;0.83;;;;;;;;;;5078093;28;20476;-86
2023/08/30 12:09:38;;;;;;;1.60;0.80;;;;;;;;;;5078320;28;20452;-86
2023/08/30 12:12:11;;;;;;;2.20;1.10;;;;;;;;;;5074972;28;20471;-86
2023/08/30 12:14:38;;;;;;;2.10;0.80;;;;;;;;;;5075477;28;20896;-86
2023/08/30 12:17:08;;;;;;;2.33;0.93;;;;;;;;;;5075350;28;21014;-86
2023/08/30 12:19:35;;;;;;;1.90;1.00;;;;;;;;;;5075721;28;20448;-86
2023/08/30 12:22:07;;;;;;;1.90;0.90;;;;;;;;;;5074855;28;20460;-86
2023/08/30 12:24:44;;;;;;;2.20;0.90;;;;;;;;;;5095426;28;20502;-86
2023/08/30 12:27:12;;;;;;;1.60;0.80;;;;;;;;;;5095937;28;20439;-85
2023/08/30 12:29:39;;;;;;;2.27;1.17;;;;;;;;;;5095660;28;20443;-85
2023/08/30 12:32:07;;;;;;;1.70;1.00;;;;;;;;;;5095165;28;21044;-85
2023/08/30 12:34:35;;;;;;;1.60;0.90;;;;;;;;;;5073628;28;20866;-85
2023/08/30 12:37:03;;;;;;;1.70;0.80;;;;;;;;;;5073720;28;20445;-83
2023/08/30 12:39:31;;;;;;;2.10;1.10;;;;;;;;;;5074685;28;20440;-82
2023/08/30 12:41:59;;;;;;;2.00;1.00;;;;;;;;;;5079935;28;20861;-83
2023/08/30 12:44:26;;;;;;;2.13;1.30;;;;;;;;;;5073119;28;20468;-82
2023/08/30 12:46:53;;;;;;;2.27;1.27;;;;;;;;;;5071944;28;20488;-83
2023/08/30 12:49:20;;;;;;;2.93;1.30;;;;;;;;;;5067863;28;20716;-83
2023/08/30 12:51:48;;;;;;;1.93;1.20;;;;;;;;;;5068560;28;20992;-83
2023/08/30 12:54:15;;;;;;;1.80;1.10;;;;;;;;;;5061982;28;21056;-82
2023/08/30 12:56:44;;;;;;;1.80;1.00;;;;;;;;;;5062929;28;20533;-83
2023/08/30 12:59:11;;;;;;;2.17;1.20;;;;;;;;;;5058119;28;20473;-83
2023/08/30 13:01:38;;;;;;;1.93;1.13;;;;;;;;;;5061253;28;20465;-83
2023/08/30 13:04:06;;;;;;;2.53;1.20;;;;;;;;;;5061602;28;20468;-83
2023/08/30 13:06:33;;;;;;;2.03;1.23;;;;;;;;;;5069707;28;20445;-82
2023/08/30 13:09:00;;;;;;;3.60;1.10;;;;;;;;;;5070106;28;20866;-83
2023/08/30 13:11:28;;;;;;;1.80;0.90;;;;;;;;;;5069515;28;20504;-83
2023/08/30 13:13:57;;;;;;;3.43;1.03;;;;;;;;;;5068231;28;20464;-82
2023/08/30 13:16:25;;;;;;;1.90;1.07;;;;;;;;;;5068803;28;20445;-83
2023/08/30 13:18:52;;;;;;;2.20;0.83;;;;;;;;;;5068556;28;20480;-83
2023/08/30 13:21:19;;;;;;;1.70;0.87;;;;;;;;;;5069701;28;20436;-83
2023/08/30 13:23:46;;;;;;;1.97;1.13;;;;;;;;;;5070007;28;20514;-83
2023/08/30 13:26:14;;;;;;;1.67;0.80;;;;;;;;;;5070666;28;20464;-83
2023/08/30 13:28:41;;;;;;;1.67;0.90;;;;;;;;;;5070055;28;20507;-82
2023/08/30 13:31:10;;;;;;;1.80;0.87;;;;;;;;;;5069703;28;20599;-82
2023/08/30 13:33:37;;;;;;;1.50;0.67;;;;;;;;;;5069582;28;20535;-82
2023/08/30 13:36:04;;;;;;;1.70;0.70;;;;;;;;;;5066978;28;20496;-82
2023/08/30 13:38:32;;;;;;;1.87;0.90;;;;;;;;;;5067612;28;21002;-82
2023/08/30 13:41:03;;;;;;;1.70;0.77;;;;;;;;;;5064517;28;20544;-83
2023/08/30 13:43:31;;;;;;;1.60;0.90;;;;;;;;;;5064020;28;20444;-82
2023/08/30 13:45:58;;;;;;;1.67;0.87;;;;;;;;;;5059805;28;20456;-82
2023/08/30 13:48:27;;;;;;;2.00;1.07;;;;;;;;;;5064921;28;20949;-83
2023/08/30 13:50:54;;;;;;;1.70;0.83;;;;;;;;;;5065621;28;21005;-83
2023/08/30 13:53:22;;;;;;;2.03;0.90;;;;;;;;;;5064320;28;20495;-82
2023/08/30 13:55:49;;;;;;;1.83;1.10;;;;;;;;;;5066213;28;20449;-83
2023/08/30 13:58:16;;;;;;;1.70;1.00;;;;;;;;;;5067560;28;20440;-82
2023/08/30 14:00:44;;;;;;;1.83;1.10;;;;;;;;;;5064099;28;20484;-82
2023/08/30 14:03:12;;;;;;;1.70;0.93;;;;;;;;;;5064562;28;20795;-83
2023/08/30 14:05:41;;;;;;;1.97;1.23;;;;;;;;;;5054685;28;20548;-83
2023/08/30 14:08:08;;;;;;;2.10;1.00;;;;;;;;;;5060865;28;20476;-84
2023/08/30 14:10:36;;;;;;;2.23;0.93;;;;;;;;;;5064460;28;20891;-84
2023/08/30 14:13:03;;;;;;;2.00;1.10;;;;;;;;;;5068716;28;20543;-84
2023/08/30 14:15:30;;;;;;;1.93;0.90;;;;;;;;;;5064026;28;20475;-83
2023/08/30 14:17:57;;;;;;;1.60;0.90;;;;;;;;;;5066783;28;20509;-83
2023/08/30 14:20:25;;;;;;;2.37;1.17;;;;;;;;;;5059538;28;20468;-83
2023/08/30 14:22:53;;;;;;;2.20;1.10;;;;;;;;;;5065533;28;20528;-83
2023/08/30 14:25:21;;;;;;;1.87;0.80;;;;;;;;;;5065897;28;20633;-83
2023/08/30 14:27:48;;;;;;;1.70;1.00;;;;;;;;;;5062002;28;20472;-82
2023/08/30 14:30:15;;;;;;;1.80;0.80;;;;;;;;;;5065152;28;20501;-83
2023/08/30 14:32:42;;;;;;;2.00;1.17;;;;;;;;;;5064741;28;20593;-83
2023/08/30 14:35:11;;;;;;;2.00;1.20;;;;;;;;;;5065628;28;20545;-83
2023/08/30 14:37:39;;;;;;;2.07;1.10;;;;;;;;;;5063611;28;20440;-83
2023/08/30 14:40:08;;;;;;;2.30;0.90;;;;;;;;;;5057338;28;20510;-83
2023/08/30 14:42:36;;;;;;;2.30;1.07;;;;;;;;;;5067293;28;20995;-83
2023/08/30 14:45:03;;;;;;;1.60;0.90;;;;;;;;;;5066049;28;20480;-82
2023/08/30 14:47:31;;;;;;;2.00;1.23;;;;;;;;;;5070156;28;20455;-82